createdAt,value
2022-12-08T00:00:57.099Z,97.72
2022-12-08T00:01:57.565Z,97.72
2022-12-08T00:02:58.976Z,97.72
2022-12-08T00:03:59.141Z,97.72
2022-12-08T00:04:58.577Z,97.72
2022-12-08T00:05:56.702Z,97.72
2022-12-08T00:06:56.116Z,97.83
2022-12-08T00:08:02.763Z,97.72
2022-12-08T00:08:56.841Z,97.72
2022-12-08T00:09:58.161Z,97.83
2022-12-08T00:10:57.857Z,97.72
2022-12-08T00:11:56.817Z,97.62
2022-12-08T00:12:58.252Z,97.72
2022-12-08T00:13:56.526Z,97.72
2022-12-08T00:14:56.950Z,97.83
2022-12-08T00:15:57.242Z,97.83
2022-12-08T00:16:56.883Z,97.83
2022-12-08T00:17:57.962Z,97.83
2022-12-08T00:18:57.275Z,97.93
2022-12-08T00:19:57.651Z,97.83
2022-12-08T00:20:58.076Z,97.72
2022-12-08T00:21:56.443Z,97.62
2022-12-08T00:22:57.750Z,97.52
2022-12-08T00:24:02.412Z,97.52
2022-12-08T00:24:55.422Z,97.52
2022-12-08T00:25:55.801Z,97.62
2022-12-08T00:26:55.181Z,97.52
2022-12-08T00:27:55.826Z,97.52
2022-12-08T00:28:56.881Z,97.52
2022-12-08T00:29:56.201Z,97.52
2022-12-08T00:30:55.587Z,97.62
2022-12-08T00:32:02.285Z,97.62
2022-12-08T00:32:56.332Z,97.41
2022-12-08T00:33:55.667Z,97.52
2022-12-08T00:35:02.655Z,97.62
2022-12-08T00:35:55.361Z,97.62
2022-12-08T00:36:56.652Z,97.52
2022-12-08T00:38:00.802Z,97.52
2022-12-08T00:38:56.389Z,97.52
2022-12-08T00:39:55.795Z,97.52
2022-12-08T00:40:57.952Z,97.52
2022-12-08T00:41:55.552Z,97.52
2022-12-08T00:42:56.796Z,97.62
2022-12-08T00:43:57.421Z,97.62
2022-12-08T00:44:57.483Z,97.62
2022-12-08T00:45:55.904Z,97.41
2022-12-08T00:46:55.177Z,97.31
2022-12-08T00:47:58.736Z,97.20
2022-12-08T00:48:55.935Z,97.20
2022-12-08T00:49:55.286Z,97.20
2022-12-08T00:51:10.191Z,97.31
2022-12-08T00:51:54.937Z,97.31
2022-12-08T00:53:02.602Z,97.31
2022-12-08T00:53:55.661Z,97.41
2022-12-08T00:54:55.058Z,97.31
2022-12-08T00:55:56.449Z,97.31
2022-12-08T00:56:55.705Z,97.31
2022-12-08T00:57:56.077Z,97.20
2022-12-08T00:58:56.360Z,97.10
2022-12-08T00:59:55.680Z,97.10
2022-12-08T01:00:55.174Z,97.10
2022-12-08T01:01:56.520Z,97.10
2022-12-08T01:02:57.892Z,97.20
2022-12-08T01:03:57.163Z,97.31
2022-12-08T01:04:57.587Z,97.31
2022-12-08T01:05:55.856Z,97.31
2022-12-08T01:06:55.216Z,97.31
2022-12-08T01:07:55.565Z,97.41
2022-12-08T01:09:09.541Z,97.20
2022-12-08T01:09:56.352Z,97.10
2022-12-08T01:10:54.641Z,97.20
2022-12-08T01:11:57.061Z,97.20
2022-12-08T01:12:55.705Z,97.20
2022-12-08T01:13:54.751Z,97.20
2022-12-08T01:15:09.726Z,97.31
2022-12-08T01:15:55.606Z,97.31
2022-12-08T01:16:54.931Z,97.31
2022-12-08T01:18:09.881Z,97.31
2022-12-08T01:18:56.576Z,97.20
2022-12-08T01:19:54.846Z,97.20
2022-12-08T01:21:45.240Z,97.10
2022-12-08T01:21:54.524Z,97.10
2022-12-08T01:22:55.958Z,97.10
2022-12-08T01:23:56.221Z,97.20
2022-12-08T01:24:56.595Z,97.20
2022-12-08T01:25:55.870Z,97.10
2022-12-08T01:26:55.270Z,97.00
2022-12-08T01:27:54.666Z,96.89
2022-12-08T01:28:57.296Z,96.89
2022-12-08T01:30:09.955Z,97.00
2022-12-08T01:30:54.806Z,97.00
2022-12-08T01:31:55.101Z,97.00
2022-12-08T01:32:57.571Z,97.00
2022-12-08T01:33:54.826Z,96.89
2022-12-08T01:34:55.266Z,96.89
2022-12-08T01:35:54.571Z,96.89
2022-12-08T01:36:56.937Z,96.89
2022-12-08T01:37:58.374Z,96.89
2022-12-08T01:39:01.957Z,96.89
2022-12-08T01:39:55.036Z,96.89
2022-12-08T01:41:01.734Z,96.89
2022-12-08T01:42:09.341Z,96.69
2022-12-08T01:42:56.187Z,96.58
2022-12-08T01:43:56.696Z,96.58
2022-12-08T01:44:56.962Z,96.37
2022-12-08T01:45:54.281Z,96.27
2022-12-08T01:46:54.737Z,96.27
2022-12-08T01:47:55.042Z,96.06
2022-12-08T01:49:01.738Z,96.06
2022-12-08T01:50:01.321Z,96.06
2022-12-08T01:50:54.008Z,96.06
2022-12-08T01:51:54.371Z,96.17
2022-12-08T01:52:55.956Z,96.27
2022-12-08T01:53:55.110Z,96.37
2022-12-08T01:54:54.432Z,96.27
2022-12-08T01:55:54.823Z,96.17
2022-12-08T01:56:54.221Z,96.17
2022-12-08T01:57:54.521Z,96.17
2022-12-08T01:58:54.972Z,96.17
2022-12-08T01:59:56.319Z,96.27
2022-12-08T02:00:56.729Z,96.37
2022-12-08T02:01:56.048Z,96.37
2022-12-08T02:02:54.462Z,96.37
2022-12-08T02:03:55.636Z,96.48
2022-12-08T02:04:55.386Z,96.69
2022-12-08T02:06:00.651Z,96.79
2022-12-08T02:06:55.788Z,96.69
2022-12-08T02:07:55.042Z,96.58
2022-12-08T02:08:55.481Z,96.69
2022-12-08T02:09:54.948Z,96.69
2022-12-08T02:11:20.127Z,96.79
2022-12-08T02:11:54.492Z,96.79
2022-12-08T02:12:54.892Z,96.89
2022-12-08T02:13:54.180Z,96.89
2022-12-08T02:15:20.857Z,97.00
2022-12-08T02:15:53.946Z,97.00
2022-12-08T02:16:54.239Z,97.10
2022-12-08T02:17:54.627Z,97.20
2022-12-08T02:19:22.387Z,97.20
2022-12-08T02:19:55.281Z,97.20
2022-12-08T02:20:57.045Z,97.10
2022-12-08T02:22:09.576Z,97.10
2022-12-08T02:22:54.326Z,97.14
2022-12-08T02:25:09.631Z,97.14
2022-12-08T02:25:15.846Z,97.10
2022-12-08T02:26:16.325Z,97.14
2022-12-08T02:27:16.612Z,97.25
2022-12-08T02:28:16.872Z,97.25
2022-12-08T02:30:06.554Z,97.35
2022-12-08T02:30:15.607Z,97.35
2022-12-08T02:31:16.093Z,97.35
2022-12-08T02:32:16.397Z,97.14
2022-12-08T02:33:22.977Z,97.14
2022-12-08T02:34:16.061Z,97.14
2022-12-08T02:35:41.416Z,97.14
2022-12-08T02:36:15.755Z,97.04
2022-12-08T02:37:19.168Z,97.04
2022-12-08T02:38:16.368Z,97.04
2022-12-08T02:39:15.786Z,97.14
2022-12-08T02:40:18.192Z,97.04
2022-12-08T02:41:15.461Z,96.94
2022-12-08T02:42:18.841Z,96.73
2022-12-08T02:43:15.146Z,96.62
2022-12-08T02:44:17.500Z,96.62
2022-12-08T02:45:17.866Z,96.48
2022-12-08T02:46:17.311Z,96.48
2022-12-08T02:47:16.546Z,96.52
2022-12-08T02:48:17.036Z,96.52
2022-12-08T02:49:17.286Z,96.52
2022-12-08T02:50:15.577Z,96.69
2022-12-08T02:51:43.190Z,96.58
2022-12-08T02:52:15.237Z,96.58
2022-12-08T02:53:49.436Z,96.27
2022-12-08T02:54:49.821Z,96.17
2022-12-08T02:55:49.151Z,96.17
2022-12-08T02:56:48.661Z,96.27
2022-12-08T02:57:50.056Z,96.17
2022-12-08T02:58:49.521Z,96.17
2022-12-08T02:59:49.737Z,96.17
2022-12-08T03:00:49.071Z,96.06
2022-12-08T03:01:48.430Z,95.96
2022-12-08T03:03:03.483Z,96.00
2022-12-08T03:03:55.421Z,95.96
2022-12-08T03:05:04.096Z,95.86
2022-12-08T03:05:56.397Z,95.86
2022-12-08T03:06:50.258Z,95.86
2022-12-08T03:08:04.197Z,95.86
2022-12-08T03:08:50.027Z,95.65
2022-12-08T03:09:49.320Z,95.75
2022-12-08T03:11:03.173Z,95.54
2022-12-08T03:12:03.547Z,95.44
2022-12-08T03:12:48.246Z,95.44
2022-12-08T03:13:55.142Z,95.54
2022-12-08T03:15:03.641Z,95.54
2022-12-08T03:15:51.576Z,95.44
2022-12-08T03:16:48.686Z,95.44
2022-12-08T03:18:03.647Z,95.65
2022-12-08T03:19:02.955Z,95.54
2022-12-08T03:19:49.133Z,95.44
2022-12-08T03:20:49.407Z,95.54
2022-12-08T03:22:03.039Z,95.65
2022-12-08T03:23:03.408Z,95.65
2022-12-08T03:24:03.832Z,95.44
2022-12-08T03:25:03.107Z,95.34
2022-12-08T03:25:48.916Z,95.44
2022-12-08T03:26:50.416Z,95.23
2022-12-08T03:28:03.307Z,95.13
2022-12-08T03:28:50.091Z,95.23
2022-12-08T03:29:48.453Z,95.23
2022-12-08T03:31:03.382Z,94.82
2022-12-08T03:32:03.755Z,94.92
2022-12-08T03:33:03.026Z,95.13
2022-12-08T03:33:48.703Z,95.23
2022-12-08T03:34:48.022Z,95.23
2022-12-08T03:35:55.686Z,95.13
2022-12-08T03:37:03.377Z,95.03
2022-12-08T03:38:03.718Z,94.92
2022-12-08T03:39:03.064Z,94.92
2022-12-08T03:39:48.763Z,95.03
2022-12-08T03:41:03.677Z,95.13
2022-12-08T03:42:03.036Z,94.92
2022-12-08T03:42:48.809Z,94.92
2022-12-08T03:43:48.178Z,94.82
2022-12-08T03:45:03.092Z,94.92
2022-12-08T03:45:48.842Z,94.92
2022-12-08T03:46:49.187Z,94.92
2022-12-08T03:47:48.591Z,94.92
2022-12-08T03:48:49.681Z,94.92
2022-12-08T03:49:47.951Z,94.92
2022-12-08T03:50:48.257Z,94.82
2022-12-08T03:51:50.476Z,94.82
2022-12-08T03:52:47.867Z,95.03
2022-12-08T03:53:48.112Z,95.03
2022-12-08T03:54:49.666Z,95.03
2022-12-08T03:55:55.213Z,95.03
2022-12-08T03:56:49.236Z,95.23
2022-12-08T03:58:03.147Z,95.13
2022-12-08T03:59:02.532Z,95.23
2022-12-08T03:59:48.296Z,95.23
2022-12-08T04:01:03.290Z,95.03
2022-12-08T04:01:48.047Z,94.92
2022-12-08T04:03:02.999Z,94.92
2022-12-08T04:03:47.678Z,95.13
2022-12-08T04:05:02.639Z,95.34
2022-12-08T04:05:49.491Z,95.44
2022-12-08T04:06:48.987Z,95.44
2022-12-08T04:07:49.300Z,95.44
2022-12-08T04:08:47.528Z,95.54
2022-12-08T04:10:02.728Z,95.75
2022-12-08T04:10:55.538Z,95.86
2022-12-08T04:12:23.086Z,95.75
2022-12-08T04:12:47.968Z,95.65
2022-12-08T04:13:49.371Z,95.44
2022-12-08T04:14:47.677Z,95.44
2022-12-08T04:15:55.358Z,95.65
2022-12-08T04:16:48.411Z,95.65
2022-12-08T04:17:47.849Z,95.75
2022-12-08T04:18:49.162Z,95.44
2022-12-08T04:19:47.547Z,95.44
2022-12-08T04:20:47.916Z,95.44
2022-12-08T04:21:50.486Z,95.65
2022-12-08T04:22:47.648Z,95.65
2022-12-08T04:23:48.281Z,95.65
2022-12-08T04:25:02.009Z,95.54
2022-12-08T04:25:47.816Z,95.54
2022-12-08T04:26:54.487Z,95.54
2022-12-08T04:27:47.633Z,95.65
2022-12-08T04:28:49.061Z,95.65
2022-12-08T04:29:47.343Z,95.75
2022-12-08T04:30:47.746Z,95.86
2022-12-08T04:31:49.141Z,96.11
2022-12-08T04:32:48.512Z,95.90
2022-12-08T04:33:47.822Z,95.79
2022-12-08T04:34:54.527Z,95.90
2022-12-08T04:35:47.576Z,96.11
2022-12-08T04:36:48.527Z,96.31
2022-12-08T04:37:47.882Z,96.52
2022-12-08T04:39:02.790Z,96.73
2022-12-08T04:39:48.596Z,96.94
2022-12-08T04:40:47.982Z,97.04
2022-12-08T04:42:02.844Z,97.35
2022-12-08T04:42:47.652Z,97.35
2022-12-08T04:43:48.917Z,97.35
2022-12-08T04:44:47.327Z,97.35
2022-12-08T04:45:50.966Z,97.45
2022-12-08T04:46:54.437Z,97.45
2022-12-08T04:47:48.531Z,97.56
2022-12-08T04:48:48.872Z,97.56
2022-12-08T04:49:49.204Z,97.56
2022-12-08T04:50:48.547Z,97.56
2022-12-08T04:51:47.942Z,97.56
2022-12-08T04:52:47.207Z,97.35
2022-12-08T04:54:02.172Z,97.35
2022-12-08T04:55:02.550Z,97.35
2022-12-08T04:55:48.313Z,97.35
2022-12-08T04:56:47.676Z,97.45
2022-12-08T04:57:48.290Z,97.35
2022-12-08T04:58:48.442Z,97.25
2022-12-08T04:59:48.801Z,97.14
2022-12-08T05:00:49.203Z,97.14
2022-12-08T05:01:48.714Z,97.14
2022-12-08T05:02:48.999Z,97.04
2022-12-08T05:03:50.246Z,96.94
2022-12-08T05:04:48.647Z,97.04
2022-12-08T05:05:47.986Z,96.94
2022-12-08T05:06:48.398Z,96.83
2022-12-08T05:08:02.568Z,96.94
2022-12-08T05:08:48.097Z,96.94
2022-12-08T05:09:47.492Z,96.83
2022-12-08T05:10:48.845Z,96.83
2022-12-08T05:12:01.741Z,96.73
2022-12-08T05:12:53.786Z,96.73
2022-12-08T05:13:46.931Z,96.73
2022-12-08T05:15:01.879Z,96.73
2022-12-08T05:15:48.709Z,96.83
2022-12-08T05:17:06.262Z,96.83
2022-12-08T05:17:48.286Z,96.94
2022-12-08T05:19:02.967Z,97.04
2022-12-08T05:20:01.907Z,97.14
2022-12-08T05:20:47.377Z,97.14
2022-12-08T05:21:46.708Z,97.14
2022-12-08T05:23:01.674Z,96.83
2022-12-08T05:24:02.092Z,97.04
2022-12-08T05:25:01.446Z,97.04
2022-12-08T05:25:47.205Z,96.83
2022-12-08T05:26:46.651Z,96.94
2022-12-08T05:28:11.435Z,97.14
2022-12-08T05:28:48.366Z,97.25
2022-12-08T05:29:46.786Z,97.35
2022-12-08T05:30:50.281Z,97.56
2022-12-08T05:31:48.674Z,97.67
2022-12-08T05:32:47.872Z,97.67
2022-12-08T05:33:47.370Z,97.67
2022-12-08T05:34:49.226Z,97.67
2022-12-08T05:35:49.202Z,97.77
2022-12-08T05:37:02.111Z,97.88
2022-12-08T05:37:54.221Z,97.98
2022-12-08T05:38:47.282Z,98.08
2022-12-08T05:41:13.766Z,98.29
2022-12-08T05:41:20.456Z,98.29
2022-12-08T05:42:24.534Z,98.39
2022-12-08T05:43:23.251Z,98.50
2022-12-08T05:44:19.496Z,98.60
2022-12-08T05:45:21.972Z,98.60
2022-12-08T05:46:21.485Z,98.50
2022-12-08T05:47:23.755Z,98.50
2022-12-08T05:48:20.112Z,98.50
2022-12-08T05:49:20.516Z,98.60
2022-12-08T05:50:19.883Z,98.60
2022-12-08T05:51:20.271Z,98.50
2022-12-08T05:52:21.711Z,98.50
2022-12-08T05:53:21.077Z,98.60
2022-12-08T05:54:19.403Z,98.50
2022-12-08T05:55:34.367Z,98.39
2022-12-08T05:56:20.149Z,98.50
2022-12-08T05:57:20.556Z,98.39
2022-12-08T05:58:23.126Z,98.50
2022-12-08T05:59:19.260Z,98.39
2022-12-08T06:00:35.266Z,98.08
2022-12-08T06:01:21.067Z,98.08
2022-12-08T06:02:19.450Z,98.08
2022-12-08T06:03:20.890Z,97.88
2022-12-08T06:04:20.186Z,97.77
2022-12-08T06:05:19.457Z,97.77
2022-12-08T06:06:21.917Z,97.77
2022-12-08T06:07:20.176Z,97.88
2022-12-08T06:09:10.563Z,97.77
2022-12-08T06:09:19.906Z,97.77
2022-12-08T06:10:19.326Z,97.67
2022-12-08T06:11:21.615Z,97.77
2022-12-08T06:12:20.018Z,97.88
2022-12-08T06:13:45.356Z,97.77
2022-12-08T06:14:19.676Z,97.77
2022-12-08T06:15:21.266Z,97.77
2022-12-08T06:16:19.411Z,97.77
2022-12-08T06:17:21.808Z,97.45
2022-12-08T06:18:21.118Z,97.35
2022-12-08T06:19:19.421Z,97.45
2022-12-08T06:20:47.879Z,97.45
2022-12-08T06:21:19.072Z,97.45
2022-12-08T06:22:19.423Z,97.25
2022-12-08T06:23:19.761Z,97.25
2022-12-08T06:24:20.140Z,97.14
2022-12-08T06:25:19.448Z,97.10
2022-12-08T06:26:26.361Z,97.31
2022-12-08T06:27:19.162Z,97.10
2022-12-08T06:28:19.526Z,97.10
2022-12-08T06:29:19.907Z,97.10
2022-12-08T06:30:20.253Z,97.10
2022-12-08T06:31:19.647Z,97.10
2022-12-08T06:32:25.798Z,97.00
2022-12-08T06:33:20.307Z,97.14
2022-12-08T06:34:20.747Z,97.20
2022-12-08T06:35:19.997Z,97.31
2022-12-08T06:36:20.367Z,97.10
2022-12-08T06:37:19.756Z,97.00
2022-12-08T06:38:20.097Z,96.89
2022-12-08T06:39:19.457Z,96.89
2022-12-08T06:40:21.925Z,96.89
2022-12-08T06:41:21.248Z,97.00
2022-12-08T06:42:19.527Z,96.89
2022-12-08T06:43:19.840Z,96.89
2022-12-08T06:44:19.337Z,96.89
2022-12-08T06:45:19.649Z,97.00
2022-12-08T06:46:19.122Z,97.00
2022-12-08T06:47:26.219Z,97.00
2022-12-08T06:48:20.724Z,96.79
2022-12-08T06:49:19.090Z,96.79
2022-12-08T06:50:59.003Z,96.89
2022-12-08T06:51:18.698Z,96.79
2022-12-08T06:52:19.051Z,96.79
2022-12-08T06:53:25.642Z,96.79
2022-12-08T06:54:19.782Z,96.79
2022-12-08T06:55:50.623Z,96.79
2022-12-08T06:56:20.547Z,96.79
2022-12-08T06:57:19.878Z,96.79
2022-12-08T06:58:19.157Z,96.79
2022-12-08T06:59:18.482Z,96.69
2022-12-08T07:00:19.802Z,96.79
2022-12-08T07:01:21.307Z,96.79
2022-12-08T07:02:20.609Z,96.79
2022-12-08T07:03:19.933Z,96.69
2022-12-08T07:04:19.266Z,96.69
2022-12-08T07:05:20.664Z,96.58
2022-12-08T07:06:18.951Z,96.48
2022-12-08T07:07:25.592Z,96.58
2022-12-08T07:08:20.862Z,96.58
2022-12-08T07:09:19.026Z,96.37
2022-12-08T07:10:19.391Z,96.37
2022-12-08T07:11:22.030Z,96.48
2022-12-08T07:12:20.053Z,96.48
2022-12-08T07:13:19.548Z,96.27
2022-12-08T07:14:21.879Z,96.17
2022-12-08T07:15:20.218Z,96.17
2022-12-08T07:16:18.621Z,96.27
2022-12-08T07:17:26.113Z,95.96
2022-12-08T07:18:20.253Z,95.86
2022-12-08T07:19:18.524Z,95.75
2022-12-08T07:20:19.871Z,95.75
2022-12-08T07:21:18.229Z,95.96
2022-12-08T07:22:50.631Z,96.17
2022-12-08T07:23:19.084Z,96.06
2022-12-08T07:25:09.280Z,96.06
2022-12-08T07:25:18.627Z,96.06
2022-12-08T07:26:18.956Z,95.86
2022-12-08T07:27:20.268Z,95.75
2022-12-08T07:28:19.676Z,95.75
2022-12-08T07:29:26.031Z,95.75
2022-12-08T07:30:19.628Z,95.86
2022-12-08T07:31:20.797Z,95.86
2022-12-08T07:32:21.152Z,95.65
2022-12-08T07:33:44.431Z,95.65
2022-12-08T07:34:19.768Z,95.65
2022-12-08T07:35:18.008Z,95.65
2022-12-08T07:36:20.538Z,95.65
2022-12-08T07:37:18.837Z,95.65
2022-12-08T07:38:19.158Z,95.54
2022-12-08T07:39:18.444Z,95.54
2022-12-08T07:40:44.828Z,95.54
2022-12-08T07:41:18.086Z,95.34
2022-12-08T07:42:18.537Z,95.13
2022-12-08T07:43:18.838Z,95.23
2022-12-08T07:44:19.209Z,95.13
2022-12-08T07:45:18.499Z,95.13
2022-12-08T07:46:18.938Z,95.13
2022-12-08T07:47:19.216Z,95.03
2022-12-08T07:48:19.599Z,94.92
2022-12-08T07:49:18.857Z,94.82
2022-12-08T07:50:18.188Z,94.71
2022-12-08T07:51:22.678Z,94.82
2022-12-08T07:52:18.897Z,94.82
2022-12-08T07:53:21.367Z,94.71
2022-12-08T07:54:20.652Z,94.51
2022-12-08T07:55:18.939Z,94.51
2022-12-08T07:56:20.326Z,94.61
2022-12-08T07:57:18.657Z,94.82
2022-12-08T07:58:19.047Z,94.40
2022-12-08T07:59:18.272Z,94.40
2022-12-08T08:00:18.608Z,94.71
2022-12-08T08:01:19.045Z,94.61
2022-12-08T08:02:26.543Z,94.51
2022-12-08T08:03:19.838Z,94.51
2022-12-08T08:04:25.322Z,94.82
2022-12-08T08:05:18.382Z,94.51
2022-12-08T08:06:24.989Z,94.20
2022-12-08T08:07:20.203Z,94.30
2022-12-08T08:08:18.538Z,94.26
2022-12-08T08:09:17.796Z,94.40
2022-12-08T08:10:18.098Z,94.30
2022-12-08T08:11:33.055Z,94.05
2022-12-08T08:12:34.199Z,94.20
2022-12-08T08:13:19.112Z,94.15
2022-12-08T08:14:25.857Z,94.36
2022-12-08T08:15:18.831Z,94.46
2022-12-08T08:16:18.339Z,94.51
2022-12-08T08:17:18.677Z,94.26
2022-12-08T08:18:18.877Z,94.26
2022-12-08T08:19:18.243Z,94.46
2022-12-08T08:21:43.050Z,94.71
2022-12-08T08:22:22.378Z,94.67
2022-12-08T08:23:19.656Z,94.61
2022-12-08T08:24:20.013Z,94.51
2022-12-08T08:25:19.327Z,94.57
2022-12-08T08:26:20.722Z,94.57
2022-12-08T08:27:21.163Z,94.78
2022-12-08T08:28:19.317Z,94.67
2022-12-08T08:29:19.738Z,94.57
2022-12-08T08:30:47.362Z,94.26
2022-12-08T08:31:20.446Z,94.15
2022-12-08T08:32:19.934Z,94.15
2022-12-08T08:33:21.013Z,94.05
2022-12-08T08:34:21.432Z,94.15
2022-12-08T08:35:19.714Z,93.95
2022-12-08T08:36:26.323Z,93.84
2022-12-08T08:37:20.730Z,94.05
2022-12-08T08:38:20.874Z,94.05
2022-12-08T08:39:19.063Z,93.95
2022-12-08T08:40:20.472Z,94.15
2022-12-08T08:41:19.823Z,93.84
2022-12-08T08:42:20.191Z,93.84
2022-12-08T08:43:30.437Z,94.05
2022-12-08T08:44:20.822Z,94.15
2022-12-08T08:45:19.188Z,94.26
2022-12-08T08:46:19.565Z,94.46
2022-12-08T08:47:19.874Z,94.57
2022-12-08T08:48:19.187Z,94.05
2022-12-08T08:49:19.668Z,94.05
2022-12-08T08:50:19.947Z,94.26
2022-12-08T08:51:20.308Z,93.95
2022-12-08T08:52:19.612Z,93.63
2022-12-08T08:53:20.028Z,93.53
2022-12-08T08:54:21.452Z,93.53
2022-12-08T08:55:21.847Z,93.63
2022-12-08T08:56:20.064Z,93.63
2022-12-08T08:57:25.257Z,93.74
2022-12-08T08:58:20.797Z,93.84
2022-12-08T08:59:26.381Z,93.84
2022-12-08T09:00:20.477Z,93.74
2022-12-08T09:01:18.757Z,93.74
2022-12-08T09:02:19.267Z,93.63
2022-12-08T09:03:20.523Z,93.32
2022-12-08T09:04:18.847Z,93.32
2022-12-08T09:05:19.242Z,93.43
2022-12-08T09:06:19.612Z,93.74
2022-12-08T09:07:20.903Z,93.53
2022-12-08T09:08:21.388Z,93.43
2022-12-08T09:09:19.575Z,93.43
2022-12-08T09:10:33.597Z,93.84
2022-12-08T09:11:19.323Z,93.84
2022-12-08T09:12:19.728Z,93.74
2022-12-08T09:13:20.099Z,93.74
2022-12-08T09:14:19.449Z,93.53
2022-12-08T09:15:19.822Z,93.53
2022-12-08T09:16:20.241Z,93.84
2022-12-08T09:17:20.572Z,93.84
2022-12-08T09:18:18.852Z,93.63
2022-12-08T09:19:19.217Z,93.32
2022-12-08T09:20:19.592Z,93.12
2022-12-08T09:21:19.978Z,92.90
2022-12-08T09:22:19.363Z,93.01
2022-12-08T09:23:43.656Z,93.53
2022-12-08T09:24:21.124Z,93.53
2022-12-08T09:25:18.433Z,93.32
2022-12-08T09:26:20.812Z,93.01
2022-12-08T09:27:19.097Z,92.90
2022-12-08T09:28:18.524Z,93.01
2022-12-08T09:29:18.803Z,92.90
2022-12-08T09:30:19.166Z,92.38
2022-12-08T09:31:19.657Z,92.59
2022-12-08T09:32:18.923Z,92.59
2022-12-08T09:33:19.243Z,92.59
2022-12-08T09:34:18.567Z,92.49
2022-12-08T09:35:21.062Z,92.07
2022-12-08T09:36:19.278Z,91.86
2022-12-08T09:37:20.805Z,92.18
2022-12-08T09:38:20.102Z,91.55
2022-12-08T09:39:18.313Z,91.55
2022-12-08T09:40:18.692Z,91.55
2022-12-08T09:41:19.113Z,90.93
2022-12-08T09:42:19.289Z,90.83
2022-12-08T09:43:18.743Z,91.24
2022-12-08T09:44:20.484Z,90.83
2022-12-08T09:45:19.570Z,91.24
2022-12-08T09:46:18.941Z,91.24
2022-12-08T09:47:20.184Z,91.45
2022-12-08T09:48:18.527Z,91.55
2022-12-08T09:49:22.267Z,91.35
2022-12-08T09:50:44.277Z,91.76
2022-12-08T09:51:18.612Z,91.76
2022-12-08T09:52:21.129Z,91.76
2022-12-08T09:53:18.326Z,91.86
2022-12-08T09:54:18.744Z,91.86
2022-12-08T09:55:19.152Z,92.18
2022-12-08T09:56:18.461Z,92.55
2022-12-08T09:57:18.907Z,92.45
2022-12-08T09:58:20.188Z,92.35
2022-12-08T09:59:19.609Z,91.93
2022-12-08T10:00:19.059Z,91.52
2022-12-08T10:01:18.301Z,91.93
2022-12-08T10:02:44.629Z,92.35
2022-12-08T10:03:17.908Z,91.83
2022-12-08T10:04:18.289Z,91.52
2022-12-08T10:05:18.817Z,91.83
2022-12-08T10:06:25.324Z,91.72
2022-12-08T10:07:25.695Z,91.72
2022-12-08T10:08:18.812Z,92.14
2022-12-08T10:09:22.665Z,92.03
2022-12-08T10:10:19.391Z,91.83
2022-12-08T10:11:19.791Z,92.14
2022-12-08T10:12:18.176Z,91.31
2022-12-08T10:13:20.544Z,91.62
2022-12-08T10:14:17.837Z,91.52
2022-12-08T10:15:18.263Z,91.31
2022-12-08T10:16:29.714Z,91.20
2022-12-08T10:17:18.973Z,91.41
2022-12-08T10:18:44.293Z,91.31
2022-12-08T10:19:18.597Z,91.52
2022-12-08T10:20:19.104Z,91.62
2022-12-08T10:21:18.264Z,91.41
2022-12-08T10:22:45.061Z,91.10
2022-12-08T10:23:17.942Z,91.41
2022-12-08T10:24:19.332Z,91.62
2022-12-08T10:25:17.674Z,91.72
2022-12-08T10:26:25.289Z,92.35
2022-12-08T10:27:19.457Z,92.24
2022-12-08T10:28:19.837Z,91.83
2022-12-08T10:29:18.062Z,91.83
2022-12-08T10:30:19.467Z,91.41
2022-12-08T10:31:18.877Z,91.41
2022-12-08T10:32:19.152Z,91.41
2022-12-08T10:33:18.497Z,91.00
2022-12-08T10:34:21.076Z,91.41
2022-12-08T10:35:21.353Z,91.31
2022-12-08T10:36:20.588Z,91.00
2022-12-08T10:37:21.928Z,91.20
2022-12-08T10:38:18.177Z,91.20
2022-12-08T10:39:17.457Z,90.89
2022-12-08T10:40:46.007Z,91.41
2022-12-08T10:41:18.227Z,91.41
2022-12-08T10:42:17.457Z,91.72
2022-12-08T10:43:17.821Z,91.93
2022-12-08T10:44:18.177Z,91.62
2022-12-08T10:45:18.529Z,91.10
2022-12-08T10:46:17.942Z,91.83
2022-12-08T10:47:18.191Z,91.93
2022-12-08T10:48:18.522Z,92.03
2022-12-08T10:49:17.781Z,92.03
2022-12-08T10:50:18.158Z,91.72
2022-12-08T10:51:17.433Z,91.62
2022-12-08T10:52:17.813Z,90.89
2022-12-08T10:53:18.146Z,91.20
2022-12-08T10:54:21.866Z,91.16
2022-12-08T10:55:20.928Z,91.20
2022-12-08T10:56:18.139Z,91.16
2022-12-08T10:57:17.458Z,90.79
2022-12-08T10:58:18.856Z,90.58
2022-12-08T10:59:19.048Z,91.47
2022-12-08T11:00:45.636Z,91.16
2022-12-08T11:01:17.836Z,91.16
2022-12-08T11:02:20.326Z,91.16
2022-12-08T11:03:17.407Z,90.85
2022-12-08T11:04:32.436Z,90.85
2022-12-08T11:05:19.176Z,90.64
2022-12-08T11:06:17.416Z,90.75
2022-12-08T11:07:25.073Z,90.44
2022-12-08T11:08:17.049Z,89.92
2022-12-08T11:09:44.732Z,89.92
2022-12-08T11:10:17.721Z,90.23
2022-12-08T11:11:24.339Z,90.54
2022-12-08T11:12:18.391Z,90.75
2022-12-08T11:13:17.687Z,90.75
2022-12-08T11:14:16.992Z,90.95
2022-12-08T11:15:17.520Z,90.33
2022-12-08T11:16:32.459Z,90.23
2022-12-08T11:17:18.103Z,89.29
2022-12-08T11:18:17.277Z,88.36
2022-12-08T11:19:18.787Z,89.09
2022-12-08T11:20:17.897Z,88.88
2022-12-08T11:21:43.256Z,88.46
2022-12-08T11:22:17.497Z,88.78
2022-12-08T11:23:17.853Z,89.40
2022-12-08T11:24:17.142Z,89.36
2022-12-08T11:25:17.466Z,88.94
2022-12-08T11:26:42.882Z,87.95
2022-12-08T11:27:17.198Z,88.05
2022-12-08T11:28:20.626Z,89.25
2022-12-08T11:29:17.802Z,88.84
2022-12-08T11:30:17.450Z,88.73
2022-12-08T11:31:43.623Z,89.46
2022-12-08T11:32:16.737Z,89.15
2022-12-08T11:33:17.131Z,89.04
2022-12-08T11:34:17.432Z,88.94
2022-12-08T11:35:17.752Z,89.25
2022-12-08T11:36:17.067Z,89.04
2022-12-08T11:37:28.562Z,88.42
2022-12-08T11:38:22.107Z,88.32
2022-12-08T11:39:48.256Z,88.21
2022-12-08T11:40:17.393Z,88.32
2022-12-08T11:41:17.063Z,88.53
2022-12-08T11:42:17.032Z,87.70
2022-12-08T11:43:17.432Z,87.59
2022-12-08T11:44:16.667Z,88.11
2022-12-08T11:45:17.920Z,88.11
2022-12-08T11:46:17.461Z,87.38
2022-12-08T11:47:17.691Z,87.80
2022-12-08T11:48:16.986Z,87.28
2022-12-08T11:49:18.571Z,87.18
2022-12-08T11:50:19.589Z,87.90
2022-12-08T11:51:18.022Z,87.70
2022-12-08T11:52:17.304Z,87.70
2022-12-08T11:53:19.766Z,87.59
2022-12-08T11:54:20.111Z,87.90
2022-12-08T11:55:19.439Z,87.70
2022-12-08T11:56:19.795Z,86.97
2022-12-08T11:57:17.002Z,86.66
2022-12-08T11:58:17.402Z,86.76
2022-12-08T11:59:24.008Z,87.49
2022-12-08T12:00:23.246Z,88.11
2022-12-08T12:01:23.577Z,87.80
2022-12-08T12:02:17.702Z,87.18
2022-12-08T12:03:31.564Z,87.59
2022-12-08T12:04:17.306Z,87.38
2022-12-08T12:05:23.538Z,87.28
2022-12-08T12:06:38.013Z,87.49
2022-12-08T12:07:23.039Z,87.18
2022-12-08T12:08:45.671Z,87.49
2022-12-08T12:09:16.846Z,87.07
2022-12-08T12:10:19.281Z,87.70
2022-12-08T12:11:16.441Z,86.66
2022-12-08T12:12:36.307Z,86.97
2022-12-08T12:13:18.087Z,87.07
2022-12-08T12:14:31.968Z,87.07
2022-12-08T12:15:16.722Z,86.76
2022-12-08T12:16:17.166Z,87.49
2022-12-08T12:17:18.416Z,87.80
2022-12-08T12:18:17.089Z,87.59
2022-12-08T12:19:17.992Z,87.49
2022-12-08T12:20:17.256Z,86.87
2022-12-08T12:21:42.576Z,86.45
2022-12-08T12:22:17.052Z,86.66
2022-12-08T12:23:19.276Z,86.76
2022-12-08T12:24:19.685Z,86.97
2022-12-08T12:26:01.172Z,86.25
2022-12-08T12:26:17.555Z,86.04
2022-12-08T12:27:16.561Z,86.35
2022-12-08T12:28:43.856Z,85.63
2022-12-08T12:29:16.106Z,85.94
2022-12-08T12:30:16.327Z,86.04
2022-12-08T12:31:16.691Z,85.63
2022-12-08T12:32:44.296Z,84.80
2022-12-08T12:33:16.201Z,84.90
2022-12-08T12:34:16.553Z,85.63
2022-12-08T12:35:16.906Z,86.35
2022-12-08T12:36:42.130Z,86.35
2022-12-08T12:37:16.548Z,85.94
2022-12-08T12:38:17.235Z,84.90
2022-12-08T12:39:16.007Z,85.31
2022-12-08T12:40:17.295Z,85.42
2022-12-08T12:41:20.953Z,86.04
2022-12-08T12:42:17.986Z,85.63
2022-12-08T12:43:23.637Z,85.42
2022-12-08T12:44:16.641Z,85.73
2022-12-08T12:45:15.896Z,85.63
2022-12-08T12:46:16.281Z,85.52
2022-12-08T12:47:16.586Z,85.42
2022-12-08T12:48:17.871Z,85.83
2022-12-08T12:49:16.207Z,86.35
2022-12-08T12:50:18.501Z,85.73
2022-12-08T12:51:16.832Z,85.31
2022-12-08T12:52:16.141Z,85.94
2022-12-08T12:53:22.716Z,86.87
2022-12-08T12:54:23.091Z,86.66
2022-12-08T12:55:16.116Z,85.94